sensor_id;sensor_type;location;lat;lon;timestamp;temperature;humidity
27128;DHT22;14660;49.008;8.390;2022-09-09T00:04:41;18.90;99.90
27128;DHT22;14660;49.008;8.390;2022-09-09T00:07:31;18.90;99.90
27128;DHT22;14660;49.008;8.390;2022-09-09T00:13:09;18.80;99.90
27128;DHT22;14660;49.008;8.390;2022-09-09T00:21:32;18.80;99.90
27128;DHT22;14660;49.008;8.390;2022-09-09T00:24:01;18.70;99.90
27128;DHT22;14660;49.008;8.390;2022-09-09T00:26:52;18.70;99.90
27128;DHT22;14660;49.008;8.390;2022-09-09T00:32:25;18.70;99.90
27128;DHT22;14660;49.008;8.390;2022-09-09T00:35:03;18.70;99.90
27128;DHT22;14660;49.008;8.390;2022-09-09T00:37:32;18.70;99.90
27128;DHT22;14660;49.008;8.390;2022-09-09T00:40:07;18.70;99.90
27128;DHT22;14660;49.008;8.390;2022-09-09T00:42:48;18.60;99.90
27128;DHT22;14660;49.008;8.390;2022-09-09T00:48:33;18.60;99.90
27128;DHT22;14660;49.008;8.390;2022-09-09T00:51:16;18.70;99.90
27128;DHT22;14660;49.008;8.390;2022-09-09T00:56:37;18.70;99.90
27128;DHT22;14660;49.008;8.390;2022-09-09T01:02:39;18.60;99.90
27128;DHT22;14660;49.008;8.390;2022-09-09T01:11:01;18.70;99.90
27128;DHT22;14660;49.008;8.390;2022-09-09T01:13:34;18.50;99.90
27128;DHT22;14660;49.008;8.390;2022-09-09T01:16:04;18.60;99.90
27128;DHT22;14660;49.008;8.390;2022-09-09T01:18:39;18.70;99.90
27128;DHT22;14660;49.008;8.390;2022-09-09T01:24:20;18.70;99.90
27128;DHT22;14660;49.008;8.390;2022-09-09T01:26:59;18.60;99.90
27128;DHT22;14660;49.008;8.390;2022-09-09T01:29:27;18.50;99.90
27128;DHT22;14660;49.008;8.390;2022-09-09T01:34:58;18.70;99.90
27128;DHT22;14660;49.008;8.390;2022-09-09T01:37:25;18.70;99.90
27128;DHT22;14660;49.008;8.390;2022-09-09T01:39:52;18.70;99.90
27128;DHT22;14660;49.008;8.390;2022-09-09T01:42:18;18.60;99.90
27128;DHT22;14660;49.008;8.390;2022-09-09T01:44:46;18.50;99.90
27128;DHT22;14660;49.008;8.390;2022-09-09T01:47:14;18.50;99.90
27128;DHT22;14660;49.008;8.390;2022-09-09T01:49:41;18.40;99.90
27128;DHT22;14660;49.008;8.390;2022-09-09T01:52:08;18.30;99.90
27128;DHT22;14660;49.008;8.390;2022-09-09T01:54:35;18.20;99.90
27128;DHT22;14660;49.008;8.390;2022-09-09T01:57:25;18.20;99.90
27128;DHT22;14660;49.008;8.390;2022-09-09T02:00:11;18.20;99.90
27128;DHT22;14660;49.008;8.390;2022-09-09T02:03:06;18.20;99.90
27128;DHT22;14660;49.008;8.390;2022-09-09T02:05:47;18.10;99.90
27128;DHT22;14660;49.008;8.390;2022-09-09T02:11:17;18.00;99.90
27128;DHT22;14660;49.008;8.390;2022-09-09T02:13:46;17.90;99.90
27128;DHT22;14660;49.008;8.390;2022-09-09T02:16:36;18.00;99.90
27128;DHT22;14660;49.008;8.390;2022-09-09T02:19:34;18.00;99.90
27128;DHT22;14660;49.008;8.390;2022-09-09T02:22:03;17.80;99.90
27128;DHT22;14660;49.008;8.390;2022-09-09T02:24:33;17.80;99.90
27128;DHT22;14660;49.008;8.390;2022-09-09T02:27:04;17.70;99.90
27128;DHT22;14660;49.008;8.390;2022-09-09T02:29:35;17.80;99.90
27128;DHT22;14660;49.008;8.390;2022-09-09T02:32:06;17.70;99.90
27128;DHT22;14660;49.008;8.390;2022-09-09T02:34:39;17.70;99.90
27128;DHT22;14660;49.008;8.390;2022-09-09T02:37:09;17.70;99.90
27128;DHT22;14660;49.008;8.390;2022-09-09T02:39:37;17.70;99.90
27128;DHT22;14660;49.008;8.390;2022-09-09T02:42:04;17.60;99.90
27128;DHT22;14660;49.008;8.390;2022-09-09T02:44:32;17.70;99.90
27128;DHT22;14660;49.008;8.390;2022-09-09T02:50:03;17.80;99.90
27128;DHT22;14660;49.008;8.390;2022-09-09T02:55:57;17.60;99.90
27128;DHT22;14660;49.008;8.390;2022-09-09T02:58:25;17.60;99.90
27128;DHT22;14660;49.008;8.390;2022-09-09T03:00:52;17.60;99.90
27128;DHT22;14660;49.008;8.390;2022-09-09T03:03:20;17.60;99.90
27128;DHT22;14660;49.008;8.390;2022-09-09T03:05:48;17.60;99.90
27128;DHT22;14660;49.008;8.390;2022-09-09T03:08:16;17.60;99.90
27128;DHT22;14660;49.008;8.390;2022-09-09T03:10:43;17.50;99.90
27128;DHT22;14660;49.008;8.390;2022-09-09T03:13:11;17.50;99.90
27128;DHT22;14660;49.008;8.390;2022-09-09T03:15:39;17.50;99.90
27128;DHT22;14660;49.008;8.390;2022-09-09T03:18:06;17.50;99.90
27128;DHT22;14660;49.008;8.390;2022-09-09T03:20:33;17.60;99.90
27128;DHT22;14660;49.008;8.390;2022-09-09T03:23:00;17.60;99.90
27128;DHT22;14660;49.008;8.390;2022-09-09T03:25:27;17.60;99.90
27128;DHT22;14660;49.008;8.390;2022-09-09T03:27:55;17.60;99.90
27128;DHT22;14660;49.008;8.390;2022-09-09T03:30:23;17.60;99.90
27128;DHT22;14660;49.008;8.390;2022-09-09T03:32:49;17.50;99.90
27128;DHT22;14660;49.008;8.390;2022-09-09T03:35:16;17.60;99.90
27128;DHT22;14660;49.008;8.390;2022-09-09T03:37:43;17.60;99.90
27128;DHT22;14660;49.008;8.390;2022-09-09T03:40:11;17.60;99.90
27128;DHT22;14660;49.008;8.390;2022-09-09T03:42:39;17.50;99.90
27128;DHT22;14660;49.008;8.390;2022-09-09T03:45:08;17.60;99.90
27128;DHT22;14660;49.008;8.390;2022-09-09T03:47:36;17.50;99.90
27128;DHT22;14660;49.008;8.390;2022-09-09T03:50:04;17.50;99.90
27128;DHT22;14660;49.008;8.390;2022-09-09T03:52:36;17.40;99.90
27128;DHT22;14660;49.008;8.390;2022-09-09T03:55:03;17.30;99.90
27128;DHT22;14660;49.008;8.390;2022-09-09T03:57:29;17.20;99.90
27128;DHT22;14660;49.008;8.390;2022-09-09T03:59:56;17.30;99.90
27128;DHT22;14660;49.008;8.390;2022-09-09T04:02:24;17.20;99.90
27128;DHT22;14660;49.008;8.390;2022-09-09T04:04:51;17.20;99.90
27128;DHT22;14660;49.008;8.390;2022-09-09T04:07:18;17.30;99.90
27128;DHT22;14660;49.008;8.390;2022-09-09T04:09:45;17.30;99.90
27128;DHT22;14660;49.008;8.390;2022-09-09T04:12:12;17.30;99.90
27128;DHT22;14660;49.008;8.390;2022-09-09T04:14:39;17.40;99.90
27128;DHT22;14660;49.008;8.390;2022-09-09T04:17:06;17.50;99.90
27128;DHT22;14660;49.008;8.390;2022-09-09T04:19:33;17.50;99.90
27128;DHT22;14660;49.008;8.390;2022-09-09T04:22:00;17.50;99.90
27128;DHT22;14660;49.008;8.390;2022-09-09T04:24:27;17.60;99.90
27128;DHT22;14660;49.008;8.390;2022-09-09T04:26:55;17.60;99.90
27128;DHT22;14660;49.008;8.390;2022-09-09T04:29:22;17.60;99.90
27128;DHT22;14660;49.008;8.390;2022-09-09T04:31:49;17.60;99.90
27128;DHT22;14660;49.008;8.390;2022-09-09T04:34:16;17.60;99.90
27128;DHT22;14660;49.008;8.390;2022-09-09T04:36:43;17.60;99.90
27128;DHT22;14660;49.008;8.390;2022-09-09T04:39:09;17.60;99.90
27128;DHT22;14660;49.008;8.390;2022-09-09T04:41:36;17.80;99.90
27128;DHT22;14660;49.008;8.390;2022-09-09T04:44:04;17.60;99.90
27128;DHT22;14660;49.008;8.390;2022-09-09T04:46:30;17.60;99.90
27128;DHT22;14660;49.008;8.390;2022-09-09T04:48:57;17.60;99.90
27128;DHT22;14660;49.008;8.390;2022-09-09T04:51:24;17.70;99.90
27128;DHT22;14660;49.008;8.390;2022-09-09T04:53:52;17.80;99.90
27128;DHT22;14660;49.008;8.390;2022-09-09T04:56:20;17.80;99.90
27128;DHT22;14660;49.008;8.390;2022-09-09T04:58:47;17.90;99.90
27128;DHT22;14660;49.008;8.390;2022-09-09T05:01:23;17.80;99.90
27128;DHT22;14660;49.008;8.390;2022-09-09T05:03:51;17.80;99.90
27128;DHT22;14660;49.008;8.390;2022-09-09T05:06:21;17.90;99.90
27128;DHT22;14660;49.008;8.390;2022-09-09T05:08:48;17.90;99.90
27128;DHT22;14660;49.008;8.390;2022-09-09T05:11:30;17.90;99.90
27128;DHT22;14660;49.008;8.390;2022-09-09T05:13:58;18.00;99.90
27128;DHT22;14660;49.008;8.390;2022-09-09T05:16:25;17.90;99.90
27128;DHT22;14660;49.008;8.390;2022-09-09T05:18:52;18.00;99.90
27128;DHT22;14660;49.008;8.390;2022-09-09T05:21:21;18.00;99.90
27128;DHT22;14660;49.008;8.390;2022-09-09T05:23:50;17.90;99.90
27128;DHT22;14660;49.008;8.390;2022-09-09T05:26:20;17.90;99.90
27128;DHT22;14660;49.008;8.390;2022-09-09T05:28:47;17.90;99.90
27128;DHT22;14660;49.008;8.390;2022-09-09T05:31:16;18.00;99.90
27128;DHT22;14660;49.008;8.390;2022-09-09T05:33:44;18.00;99.90
27128;DHT22;14660;49.008;8.390;2022-09-09T05:36:17;17.90;99.90
27128;DHT22;14660;49.008;8.390;2022-09-09T05:38:44;17.90;99.90
27128;DHT22;14660;49.008;8.390;2022-09-09T05:41:11;18.00;99.90
27128;DHT22;14660;49.008;8.390;2022-09-09T05:43:39;18.10;99.90
27128;DHT22;14660;49.008;8.390;2022-09-09T05:46:09;18.10;99.90
27128;DHT22;14660;49.008;8.390;2022-09-09T05:48:37;18.10;99.90
27128;DHT22;14660;49.008;8.390;2022-09-09T05:51:07;18.10;99.90
27128;DHT22;14660;49.008;8.390;2022-09-09T05:53:35;18.10;99.90
27128;DHT22;14660;49.008;8.390;2022-09-09T05:56:25;18.10;99.90
27128;DHT22;14660;49.008;8.390;2022-09-09T05:58:53;18.20;99.90
27128;DHT22;14660;49.008;8.390;2022-09-09T06:01:42;18.30;99.90
27128;DHT22;14660;49.008;8.390;2022-09-09T06:04:09;18.50;99.90
27128;DHT22;14660;49.008;8.390;2022-09-09T06:06:37;18.80;99.90
27128;DHT22;14660;49.008;8.390;2022-09-09T06:09:06;19.00;99.90
27128;DHT22;14660;49.008;8.390;2022-09-09T06:11:38;19.10;99.90
27128;DHT22;14660;49.008;8.390;2022-09-09T06:14:07;19.10;99.90
27128;DHT22;14660;49.008;8.390;2022-09-09T06:16:34;19.10;99.90
27128;DHT22;14660;49.008;8.390;2022-09-09T06:19:01;19.00;99.90
27128;DHT22;14660;49.008;8.390;2022-09-09T06:21:33;19.00;99.90
27128;DHT22;14660;49.008;8.390;2022-09-09T06:24:07;19.00;99.90
27128;DHT22;14660;49.008;8.390;2022-09-09T06:26:37;19.00;99.90
27128;DHT22;14660;49.008;8.390;2022-09-09T06:29:07;19.00;99.90
27128;DHT22;14660;49.008;8.390;2022-09-09T06:31:35;19.00;99.90
27128;DHT22;14660;49.008;8.390;2022-09-09T06:34:07;19.00;99.90
27128;DHT22;14660;49.008;8.390;2022-09-09T06:36:37;19.00;99.90
27128;DHT22;14660;49.008;8.390;2022-09-09T06:39:05;19.10;99.90
27128;DHT22;14660;49.008;8.390;2022-09-09T06:41:33;19.20;99.90
27128;DHT22;14660;49.008;8.390;2022-09-09T06:44:00;19.10;99.90
27128;DHT22;14660;49.008;8.390;2022-09-09T06:46:29;19.20;99.90
27128;DHT22;14660;49.008;8.390;2022-09-09T06:48:58;19.30;99.90
27128;DHT22;14660;49.008;8.390;2022-09-09T06:51:29;19.40;99.90
27128;DHT22;14660;49.008;8.390;2022-09-09T06:53:59;19.40;99.90
27128;DHT22;14660;49.008;8.390;2022-09-09T06:56:45;19.40;99.90
27128;DHT22;14660;49.008;8.390;2022-09-09T06:59:12;19.40;99.90
27128;DHT22;14660;49.008;8.390;2022-09-09T07:01:41;19.30;99.90
27128;DHT22;14660;49.008;8.390;2022-09-09T07:04:08;19.30;99.90
27128;DHT22;14660;49.008;8.390;2022-09-09T07:06:41;19.40;99.90
27128;DHT22;14660;49.008;8.390;2022-09-09T07:09:11;19.40;99.90
27128;DHT22;14660;49.008;8.390;2022-09-09T07:11:40;19.40;99.90
27128;DHT22;14660;49.008;8.390;2022-09-09T07:14:11;19.50;99.90
27128;DHT22;14660;49.008;8.390;2022-09-09T07:16:44;19.60;99.90
27128;DHT22;14660;49.008;8.390;2022-09-09T07:19:12;19.90;99.90
27128;DHT22;14660;49.008;8.390;2022-09-09T07:21:41;20.00;99.90
27128;DHT22;14660;49.008;8.390;2022-09-09T07:24:09;20.10;99.90
27128;DHT22;14660;49.008;8.390;2022-09-09T07:26:38;20.20;99.90
27128;DHT22;14660;49.008;8.390;2022-09-09T07:29:07;20.20;99.90
27128;DHT22;14660;49.008;8.390;2022-09-09T07:31:36;20.20;99.90
27128;DHT22;14660;49.008;8.390;2022-09-09T07:34:04;20.20;99.90
27128;DHT22;14660;49.008;8.390;2022-09-09T07:36:34;20.20;99.90
27128;DHT22;14660;49.008;8.390;2022-09-09T07:39:03;20.10;99.90
27128;DHT22;14660;49.008;8.390;2022-09-09T07:41:48;20.00;99.90
27128;DHT22;14660;49.008;8.390;2022-09-09T07:44:18;20.00;99.90
27128;DHT22;14660;49.008;8.390;2022-09-09T07:46:47;20.00;99.90
27128;DHT22;14660;49.008;8.390;2022-09-09T07:49:15;20.10;99.90
27128;DHT22;14660;49.008;8.390;2022-09-09T07:51:44;20.20;99.90
27128;DHT22;14660;49.008;8.390;2022-09-09T07:54:14;20.10;99.90
27128;DHT22;14660;49.008;8.390;2022-09-09T07:56:42;20.00;99.90
27128;DHT22;14660;49.008;8.390;2022-09-09T07:59:09;19.90;99.90
27128;DHT22;14660;49.008;8.390;2022-09-09T08:01:42;20.00;99.90
27128;DHT22;14660;49.008;8.390;2022-09-09T08:04:12;20.20;99.90
27128;DHT22;14660;49.008;8.390;2022-09-09T08:09:27;20.50;99.90
27128;DHT22;14660;49.008;8.390;2022-09-09T08:11:56;20.60;99.90
27128;DHT22;14660;49.008;8.390;2022-09-09T08:14:23;20.70;99.90
27128;DHT22;14660;49.008;8.390;2022-09-09T08:16:51;20.80;99.90
27128;DHT22;14660;49.008;8.390;2022-09-09T08:19:19;20.90;99.90
27128;DHT22;14660;49.008;8.390;2022-09-09T08:21:46;21.00;99.90
27128;DHT22;14660;49.008;8.390;2022-09-09T08:24:16;21.40;99.90
27128;DHT22;14660;49.008;8.390;2022-09-09T08:26:45;21.60;99.90
27128;DHT22;14660;49.008;8.390;2022-09-09T08:29:13;21.60;99.90
27128;DHT22;14660;49.008;8.390;2022-09-09T08:31:47;21.50;99.90
27128;DHT22;14660;49.008;8.390;2022-09-09T08:34:14;21.40;99.90
27128;DHT22;14660;49.008;8.390;2022-09-09T08:36:43;21.30;99.90
27128;DHT22;14660;49.008;8.390;2022-09-09T08:39:12;21.10;99.90
27128;DHT22;14660;49.008;8.390;2022-09-09T08:47:56;21.00;99.90
27128;DHT22;14660;49.008;8.390;2022-09-09T08:50:39;21.20;99.90
27128;DHT22;14660;49.008;8.390;2022-09-09T08:53:36;21.40;99.90
27128;DHT22;14660;49.008;8.390;2022-09-09T08:56:11;21.50;99.90
27128;DHT22;14660;49.008;8.390;2022-09-09T08:58:48;21.40;99.90
27128;DHT22;14660;49.008;8.390;2022-09-09T09:10:50;20.80;99.90
27128;DHT22;14660;49.008;8.390;2022-09-09T09:13:26;20.80;99.90
27128;DHT22;14660;49.008;8.390;2022-09-09T09:16:10;20.60;99.90
27128;DHT22;14660;49.008;8.390;2022-09-09T09:18:40;20.60;99.90
27128;DHT22;14660;49.008;8.390;2022-09-09T09:21:26;20.60;99.90
27128;DHT22;14660;49.008;8.390;2022-09-09T09:23:58;20.60;99.90
27128;DHT22;14660;49.008;8.390;2022-09-09T09:26:31;20.70;99.90
27128;DHT22;14660;49.008;8.390;2022-09-09T09:29:03;20.80;99.90
27128;DHT22;14660;49.008;8.390;2022-09-09T09:31:35;21.00;99.90
27128;DHT22;14660;49.008;8.390;2022-09-09T09:34:01;21.00;99.90
27128;DHT22;14660;49.008;8.390;2022-09-09T09:36:40;21.10;99.90
27128;DHT22;14660;49.008;8.390;2022-09-09T09:39:08;21.10;99.90
27128;DHT22;14660;49.008;8.390;2022-09-09T09:41:53;21.10;99.90
27128;DHT22;14660;49.008;8.390;2022-09-09T09:44:30;21.20;99.90
27128;DHT22;14660;49.008;8.390;2022-09-09T09:47:14;21.30;99.90
27128;DHT22;14660;49.008;8.390;2022-09-09T09:50:01;21.30;99.90
27128;DHT22;14660;49.008;8.390;2022-09-09T09:52:31;21.40;99.90
27128;DHT22;14660;49.008;8.390;2022-09-09T09:54:59;21.60;99.90
27128;DHT22;14660;49.008;8.390;2022-09-09T09:57:31;21.80;99.90
27128;DHT22;14660;49.008;8.390;2022-09-09T10:02:40;21.80;99.90
27128;DHT22;14660;49.008;8.390;2022-09-09T10:05:28;21.80;99.90
27128;DHT22;14660;49.008;8.390;2022-09-09T10:08:14;21.70;99.90
27128;DHT22;14660;49.008;8.390;2022-09-09T10:16:58;21.60;99.90
27128;DHT22;14660;49.008;8.390;2022-09-09T10:19:35;21.60;99.90
27128;DHT22;14660;49.008;8.390;2022-09-09T10:22:28;21.50;99.90
27128;DHT22;14660;49.008;8.390;2022-09-09T10:28:24;21.50;99.90
27128;DHT22;14660;49.008;8.390;2022-09-09T10:31:24;21.70;99.90
27128;DHT22;14660;49.008;8.390;2022-09-09T10:34:24;21.70;99.90
27128;DHT22;14660;49.008;8.390;2022-09-09T10:36:54;21.70;99.90
27128;DHT22;14660;49.008;8.390;2022-09-09T10:39:38;21.70;99.90
27128;DHT22;14660;49.008;8.390;2022-09-09T10:42:13;21.70;99.90
27128;DHT22;14660;49.008;8.390;2022-09-09T10:50:56;21.80;99.90
27128;DHT22;14660;49.008;8.390;2022-09-09T10:53:58;21.90;99.90
27128;DHT22;14660;49.008;8.390;2022-09-09T10:56:30;22.20;99.90
27128;DHT22;14660;49.008;8.390;2022-09-09T10:59:30;22.30;99.90
27128;DHT22;14660;49.008;8.390;2022-09-09T11:02:27;22.20;99.90
27128;DHT22;14660;49.008;8.390;2022-09-09T11:08:05;21.90;99.90
27128;DHT22;14660;49.008;8.390;2022-09-09T11:10:57;22.00;99.90
27128;DHT22;14660;49.008;8.390;2022-09-09T11:14:14;22.00;99.90
27128;DHT22;14660;49.008;8.390;2022-09-09T11:16:43;21.90;99.90
27128;DHT22;14660;49.008;8.390;2022-09-09T11:19:33;22.00;99.90
27128;DHT22;14660;49.008;8.390;2022-09-09T11:24:50;22.20;99.90
27128;DHT22;14660;49.008;8.390;2022-09-09T11:27:22;22.20;99.90
27128;DHT22;14660;49.008;8.390;2022-09-09T11:38:51;22.40;99.90
27128;DHT22;14660;49.008;8.390;2022-09-09T11:41:21;22.50;99.90
27128;DHT22;14660;49.008;8.390;2022-09-09T11:43:51;22.50;99.90
27128;DHT22;14660;49.008;8.390;2022-09-09T11:46:31;22.60;99.90
27128;DHT22;14660;49.008;8.390;2022-09-09T11:49:05;22.50;99.90
27128;DHT22;14660;49.008;8.390;2022-09-09T11:51:33;22.40;99.90
27128;DHT22;14660;49.008;8.390;2022-09-09T11:54:31;22.40;99.90
27128;DHT22;14660;49.008;8.390;2022-09-09T11:56:58;22.40;99.90
27128;DHT22;14660;49.008;8.390;2022-09-09T11:59:30;22.40;99.90
27128;DHT22;14660;49.008;8.390;2022-09-09T12:02:17;22.50;99.90
27128;DHT22;14660;49.008;8.390;2022-09-09T12:05:10;22.50;99.90
27128;DHT22;14660;49.008;8.390;2022-09-09T12:07:56;22.60;99.90
27128;DHT22;14660;49.008;8.390;2022-09-09T12:10:52;22.60;99.90
27128;DHT22;14660;49.008;8.390;2022-09-09T12:13:38;22.70;99.90
27128;DHT22;14660;49.008;8.390;2022-09-09T12:16:05;22.70;99.90
27128;DHT22;14660;49.008;8.390;2022-09-09T12:18:49;22.70;99.90
27128;DHT22;14660;49.008;8.390;2022-09-09T12:24:08;22.70;99.90
27128;DHT22;14660;49.008;8.390;2022-09-09T12:26:52;22.80;99.90
27128;DHT22;14660;49.008;8.390;2022-09-09T12:29:44;22.80;99.90
27128;DHT22;14660;49.008;8.390;2022-09-09T12:32:23;22.70;99.90
27128;DHT22;14660;49.008;8.390;2022-09-09T12:35:12;22.70;99.90
27128;DHT22;14660;49.008;8.390;2022-09-09T12:38:00;22.70;99.90
27128;DHT22;14660;49.008;8.390;2022-09-09T12:40:56;22.80;99.90
27128;DHT22;14660;49.008;8.390;2022-09-09T12:43:25;22.90;99.90
27128;DHT22;14660;49.008;8.390;2022-09-09T12:46:00;22.90;99.90
27128;DHT22;14660;49.008;8.390;2022-09-09T12:48:40;23.00;99.90
27128;DHT22;14660;49.008;8.390;2022-09-09T12:51:31;23.00;99.90
27128;DHT22;14660;49.008;8.390;2022-09-09T12:53:59;23.00;99.90
27128;DHT22;14660;49.008;8.390;2022-09-09T12:56:29;23.10;99.90
27128;DHT22;14660;49.008;8.390;2022-09-09T12:58:58;23.40;99.90
27128;DHT22;14660;49.008;8.390;2022-09-09T13:01:43;23.50;99.90
27128;DHT22;14660;49.008;8.390;2022-09-09T13:04:22;23.50;99.90
27128;DHT22;14660;49.008;8.390;2022-09-09T13:06:49;23.20;99.90
27128;DHT22;14660;49.008;8.390;2022-09-09T13:09:16;22.90;99.90
27128;DHT22;14660;49.008;8.390;2022-09-09T13:11:50;22.60;99.90
27128;DHT22;14660;49.008;8.390;2022-09-09T13:14:36;22.50;99.90
27128;DHT22;14660;49.008;8.390;2022-09-09T13:17:15;22.50;99.90
27128;DHT22;14660;49.008;8.390;2022-09-09T13:19:44;22.40;99.90
27128;DHT22;14660;49.008;8.390;2022-09-09T13:22:35;22.50;99.90
27128;DHT22;14660;49.008;8.390;2022-09-09T13:27:58;22.50;99.90
27128;DHT22;14660;49.008;8.390;2022-09-09T13:30:54;22.60;99.90
27128;DHT22;14660;49.008;8.390;2022-09-09T13:33:22;22.60;99.90
27128;DHT22;14660;49.008;8.390;2022-09-09T13:36:10;22.60;99.90
27128;DHT22;14660;49.008;8.390;2022-09-09T13:38:55;22.60;99.90
27128;DHT22;14660;49.008;8.390;2022-09-09T13:41:35;22.50;99.90
27128;DHT22;14660;49.008;8.390;2022-09-09T13:44:04;22.30;99.90
27128;DHT22;14660;49.008;8.390;2022-09-09T13:47:03;22.10;99.90
27128;DHT22;14660;49.008;8.390;2022-09-09T13:49:31;22.00;99.90
27128;DHT22;14660;49.008;8.390;2022-09-09T13:52:11;21.90;99.90
27128;DHT22;14660;49.008;8.390;2022-09-09T13:54:38;21.80;99.90
27128;DHT22;14660;49.008;8.390;2022-09-09T13:57:12;21.80;99.90
27128;DHT22;14660;49.008;8.390;2022-09-09T13:59:40;21.80;99.90
27128;DHT22;14660;49.008;8.390;2022-09-09T14:02:07;21.80;99.90
27128;DHT22;14660;49.008;8.390;2022-09-09T14:04:34;21.70;99.90
27128;DHT22;14660;49.008;8.390;2022-09-09T14:07:02;21.60;99.90
27128;DHT22;14660;49.008;8.390;2022-09-09T14:09:30;21.60;99.90
27128;DHT22;14660;49.008;8.390;2022-09-09T14:11:56;21.50;99.90
27128;DHT22;14660;49.008;8.390;2022-09-09T14:14:24;21.40;99.90
27128;DHT22;14660;49.008;8.390;2022-09-09T14:16:51;21.20;99.90
27128;DHT22;14660;49.008;8.390;2022-09-09T14:19:18;20.80;99.90
27128;DHT22;14660;49.008;8.390;2022-09-09T14:21:45;20.10;99.90
27128;DHT22;14660;49.008;8.390;2022-09-09T14:24:11;19.60;99.90
27128;DHT22;14660;49.008;8.390;2022-09-09T14:26:38;19.00;99.90
27128;DHT22;14660;49.008;8.390;2022-09-09T14:29:07;18.80;99.90
27128;DHT22;14660;49.008;8.390;2022-09-09T14:31:34;18.60;99.90
27128;DHT22;14660;49.008;8.390;2022-09-09T14:34:01;18.60;99.90
27128;DHT22;14660;49.008;8.390;2022-09-09T14:36:28;18.50;99.90
27128;DHT22;14660;49.008;8.390;2022-09-09T14:38:54;18.60;99.90
27128;DHT22;14660;49.008;8.390;2022-09-09T14:41:27;18.50;99.90
27128;DHT22;14660;49.008;8.390;2022-09-09T14:43:56;18.60;99.90
27128;DHT22;14660;49.008;8.390;2022-09-09T14:46:23;18.40;99.90
27128;DHT22;14660;49.008;8.390;2022-09-09T14:48:50;18.50;99.90
27128;DHT22;14660;49.008;8.390;2022-09-09T14:51:21;18.50;99.90
27128;DHT22;14660;49.008;8.390;2022-09-09T14:53:56;18.50;99.90
27128;DHT22;14660;49.008;8.390;2022-09-09T14:56:26;18.50;99.90
27128;DHT22;14660;49.008;8.390;2022-09-09T14:58:58;18.60;99.90
27128;DHT22;14660;49.008;8.390;2022-09-09T15:01:25;18.50;99.90
27128;DHT22;14660;49.008;8.390;2022-09-09T15:03:58;18.50;99.90
27128;DHT22;14660;49.008;8.390;2022-09-09T15:06:27;18.60;99.90
27128;DHT22;14660;49.008;8.390;2022-09-09T15:08:55;18.70;99.90
27128;DHT22;14660;49.008;8.390;2022-09-09T15:11:27;18.90;99.90
27128;DHT22;14660;49.008;8.390;2022-09-09T15:13:56;18.90;99.90
27128;DHT22;14660;49.008;8.390;2022-09-09T15:16:27;19.10;99.90
27128;DHT22;14660;49.008;8.390;2022-09-09T15:18:57;19.20;99.90
27128;DHT22;14660;49.008;8.390;2022-09-09T15:21:25;19.30;99.90
27128;DHT22;14660;49.008;8.390;2022-09-09T15:23:53;19.50;99.90
27128;DHT22;14660;49.008;8.390;2022-09-09T15:26:20;19.60;99.90
27128;DHT22;14660;49.008;8.390;2022-09-09T15:28:47;19.80;99.90
27128;DHT22;14660;49.008;8.390;2022-09-09T15:31:21;20.10;99.90
27128;DHT22;14660;49.008;8.390;2022-09-09T15:33:56;20.30;99.90
27128;DHT22;14660;49.008;8.390;2022-09-09T15:36:47;20.30;99.90
27128;DHT22;14660;49.008;8.390;2022-09-09T15:39:16;20.40;99.90
27128;DHT22;14660;49.008;8.390;2022-09-09T15:41:47;20.50;99.90
27128;DHT22;14660;49.008;8.390;2022-09-09T15:44:15;20.50;99.90
27128;DHT22;14660;49.008;8.390;2022-09-09T15:46:52;20.40;99.90
27128;DHT22;14660;49.008;8.390;2022-09-09T15:49:24;20.50;99.90
27128;DHT22;14660;49.008;8.390;2022-09-09T15:52:01;20.50;99.90
27128;DHT22;14660;49.008;8.390;2022-09-09T15:54:35;20.40;99.90
27128;DHT22;14660;49.008;8.390;2022-09-09T15:57:05;20.40;99.90
27128;DHT22;14660;49.008;8.390;2022-09-09T15:59:32;20.40;99.90
27128;DHT22;14660;49.008;8.390;2022-09-09T16:02:00;20.30;99.90
27128;DHT22;14660;49.008;8.390;2022-09-09T16:04:28;20.30;99.90
27128;DHT22;14660;49.008;8.390;2022-09-09T16:07:01;20.20;99.90
27128;DHT22;14660;49.008;8.390;2022-09-09T16:09:28;20.00;99.90
27128;DHT22;14660;49.008;8.390;2022-09-09T16:12:00;19.90;99.90
27128;DHT22;14660;49.008;8.390;2022-09-09T16:14:33;19.80;99.90
27128;DHT22;14660;49.008;8.390;2022-09-09T16:17:03;19.60;99.90
27128;DHT22;14660;49.008;8.390;2022-09-09T16:19:30;19.60;99.90
27128;DHT22;14660;49.008;8.390;2022-09-09T16:21:57;19.50;99.90
27128;DHT22;14660;49.008;8.390;2022-09-09T16:24:24;19.50;99.90
27128;DHT22;14660;49.008;8.390;2022-09-09T16:26:52;19.40;99.90
27128;DHT22;14660;49.008;8.390;2022-09-09T16:29:21;19.30;99.90
27128;DHT22;14660;49.008;8.390;2022-09-09T16:31:49;19.30;99.90
27128;DHT22;14660;49.008;8.390;2022-09-09T16:34:17;19.30;99.90
27128;DHT22;14660;49.008;8.390;2022-09-09T16:36:45;19.20;99.90
27128;DHT22;14660;49.008;8.390;2022-09-09T16:39:18;19.20;99.90
27128;DHT22;14660;49.008;8.390;2022-09-09T16:41:47;19.10;99.90
27128;DHT22;14660;49.008;8.390;2022-09-09T16:44:16;19.10;99.90
27128;DHT22;14660;49.008;8.390;2022-09-09T16:46:45;19.00;99.90
27128;DHT22;14660;49.008;8.390;2022-09-09T16:49:15;18.90;99.90
27128;DHT22;14660;49.008;8.390;2022-09-09T16:51:47;18.90;99.90
27128;DHT22;14660;49.008;8.390;2022-09-09T16:54:16;18.90;99.90
27128;DHT22;14660;49.008;8.390;2022-09-09T16:56:45;19.00;99.90
27128;DHT22;14660;49.008;8.390;2022-09-09T16:59:18;18.90;99.90
27128;DHT22;14660;49.008;8.390;2022-09-09T17:01:46;18.80;99.90
27128;DHT22;14660;49.008;8.390;2022-09-09T17:04:22;18.90;99.90
27128;DHT22;14660;49.008;8.390;2022-09-09T17:06:52;18.90;99.90
27128;DHT22;14660;49.008;8.390;2022-09-09T17:09:19;19.00;99.90
27128;DHT22;14660;49.008;8.390;2022-09-09T17:11:47;19.00;99.90
27128;DHT22;14660;49.008;8.390;2022-09-09T17:14:18;19.10;99.90
27128;DHT22;14660;49.008;8.390;2022-09-09T17:16:45;19.10;99.90
27128;DHT22;14660;49.008;8.390;2022-09-09T17:19:14;19.10;99.90
27128;DHT22;14660;49.008;8.390;2022-09-09T17:21:40;19.10;99.90
27128;DHT22;14660;49.008;8.390;2022-09-09T17:24:07;19.10;99.90
27128;DHT22;14660;49.008;8.390;2022-09-09T17:26:34;19.00;99.90
27128;DHT22;14660;49.008;8.390;2022-09-09T17:29:02;18.90;99.90
27128;DHT22;14660;49.008;8.390;2022-09-09T17:31:29;18.90;99.90
27128;DHT22;14660;49.008;8.390;2022-09-09T17:33:56;18.80;99.90
27128;DHT22;14660;49.008;8.390;2022-09-09T17:36:42;18.70;99.90
27128;DHT22;14660;49.008;8.390;2022-09-09T17:39:08;18.70;99.90
27128;DHT22;14660;49.008;8.390;2022-09-09T17:41:39;18.60;99.90
27128;DHT22;14660;49.008;8.390;2022-09-09T17:44:07;18.50;99.90
27128;DHT22;14660;49.008;8.390;2022-09-09T17:46:36;18.50;99.90